createdAt,value
2019-04-28T04:00:55.244Z,92.00
2019-04-28T04:01:59.793Z,100.00
2019-04-28T04:02:55.594Z,108.00
2019-04-28T04:03:55.754Z,120.00
2019-04-28T04:04:55.924Z,128.00
2019-04-28T04:05:56.093Z,136.00
2019-04-28T04:06:56.259Z,148.00
2019-04-28T04:07:56.428Z,160.00
2019-04-28T04:08:56.632Z,168.00
2019-04-28T04:09:56.782Z,180.00
2019-04-28T04:10:56.957Z,188.00
2019-04-28T04:11:57.110Z,200.00
2019-04-28T04:12:57.281Z,216.00
2019-04-28T04:13:57.450Z,224.00
2019-04-28T04:14:57.620Z,244.00
2019-04-28T04:15:57.787Z,264.00
2019-04-28T04:17:00.000Z,284.00
2019-04-28T04:18:01.174Z,304.00
2019-04-28T04:19:00.540Z,328.00
2019-04-28T04:20:01.589Z,352.00
2019-04-28T04:21:00.814Z,376.00
2019-04-28T04:22:00.354Z,404.00
2019-04-28T04:23:01.420Z,428.00
2019-04-28T04:24:01.006Z,464.00
2019-04-28T04:25:01.319Z,496.00
2019-04-28T04:26:01.589Z,528.00
2019-04-28T04:27:00.858Z,564.00
2019-04-28T04:28:03.241Z,592.00
2019-04-28T04:29:00.945Z,628.00
2019-04-28T04:30:01.540Z,664.00
2019-04-28T04:31:02.951Z,704.00
2019-04-28T04:32:11.609Z,740.00
2019-04-28T04:33:01.380Z,788.00
2019-04-28T04:34:03.319Z,828.00
2019-04-28T04:35:01.035Z,868.00
2019-04-28T04:36:01.717Z,908.00
2019-04-28T04:37:01.373Z,956.00
2019-04-28T04:38:01.544Z,1000.00
2019-04-28T04:39:02.175Z,1044.00
2019-04-28T04:40:01.949Z,1076.00
2019-04-28T04:41:02.064Z,1112.00
2019-04-28T04:42:02.237Z,1140.00
2019-04-28T04:43:02.409Z,1180.00
2019-04-28T04:44:02.587Z,1224.00
2019-04-28T04:45:02.749Z,1244.00
2019-04-28T04:46:02.920Z,1284.00
2019-04-28T04:47:03.104Z,1324.00
2019-04-28T04:48:03.271Z,1352.00
2019-04-28T04:49:03.444Z,1388.00
2019-04-28T04:50:03.613Z,1412.00
2019-04-28T04:51:03.783Z,1436.00
2019-04-28T04:52:03.980Z,1448.00
2019-04-28T04:53:04.139Z,1472.00
2019-04-28T04:54:04.313Z,1492.00
2019-04-28T04:55:04.480Z,1504.00
2019-04-28T04:56:04.650Z,1532.00
2019-04-28T04:57:04.819Z,1540.00
2019-04-28T04:58:04.989Z,1536.00
2019-04-28T04:59:05.161Z,1560.00
2019-04-28T05:00:05.334Z,1596.00
2019-04-28T05:01:05.510Z,1616.00
2019-04-28T05:02:05.686Z,1636.00
2019-04-28T05:03:05.854Z,1660.00
2019-04-28T05:04:06.022Z,1724.00
2019-04-28T05:05:06.197Z,1772.00
2019-04-28T05:06:06.364Z,1848.00
2019-04-28T05:07:06.534Z,1908.00
2019-04-28T05:08:06.706Z,1960.00
2019-04-28T05:09:06.872Z,2008.00
2019-04-28T05:10:07.046Z,2072.00
2019-04-28T05:11:07.215Z,2108.00
2019-04-28T05:12:07.386Z,2128.00
2019-04-28T05:13:07.555Z,2220.00
2019-04-28T05:14:11.321Z,2284.00
2019-04-28T05:15:07.900Z,2340.00
2019-04-28T05:16:09.613Z,2412.00
2019-04-28T05:17:08.234Z,2592.00
2019-04-28T05:18:10.068Z,2664.00
2019-04-28T05:19:10.112Z,2836.00
2019-04-28T05:20:09.879Z,3048.00
2019-04-28T05:21:10.571Z,3184.00
2019-04-28T05:22:10.181Z,3324.00
2019-04-28T05:23:09.640Z,3372.00
2019-04-28T05:24:15.800Z,3388.00
2019-04-28T05:25:10.319Z,3376.00
2019-04-28T05:26:11.327Z,3368.00
2019-04-28T05:27:09.968Z,3356.00
2019-04-28T05:28:10.482Z,3332.00
2019-04-28T05:29:10.306Z,3280.00
2019-04-28T05:30:13.743Z,3264.00
2019-04-28T05:31:13.852Z,3256.00
2019-04-28T05:32:10.951Z,3252.00
2019-04-28T05:33:10.992Z,3272.00
2019-04-28T05:34:11.635Z,3332.00
2019-04-28T05:35:11.353Z,3408.00
2019-04-28T05:36:11.771Z,3484.00
2019-04-28T05:37:11.694Z,3544.00
2019-04-28T05:38:11.865Z,3600.00
2019-04-28T05:39:12.038Z,3676.00
2019-04-28T05:40:12.221Z,3784.00
2019-04-28T05:41:12.380Z,3844.00
2019-04-28T05:42:12.549Z,3900.00
2019-04-28T05:43:12.725Z,3992.00
2019-04-28T05:44:12.895Z,4072.00
2019-04-28T05:45:13.065Z,4164.00
2019-04-28T05:46:13.243Z,4252.00
2019-04-28T05:47:13.405Z,4368.00
2019-04-28T05:48:13.573Z,4460.00
2019-04-28T05:49:13.749Z,4512.00
2019-04-28T05:50:13.917Z,4556.00
2019-04-28T05:51:14.085Z,4600.00
2019-04-28T05:52:14.257Z,4648.00
2019-04-28T05:53:14.428Z,4724.00
2019-04-28T05:54:14.594Z,4768.00
2019-04-28T05:55:14.766Z,4716.00
2019-04-28T05:56:14.942Z,4728.00
2019-04-28T05:57:15.111Z,4852.00
2019-04-28T05:58:15.285Z,4744.00
2019-04-28T05:59:15.463Z,4792.00
2019-04-28T06:00:15.630Z,4936.00
2019-04-28T06:01:15.798Z,5016.00
2019-04-28T06:02:16.013Z,5128.00
2019-04-28T06:03:16.156Z,5108.00
2019-04-28T06:04:16.328Z,5244.00
2019-04-28T06:05:16.499Z,5444.00
2019-04-28T06:06:16.671Z,5524.00
2019-04-28T06:07:16.844Z,5676.00
2019-04-28T06:08:17.027Z,5744.00
2019-04-28T06:09:17.201Z,6008.00
2019-04-28T06:10:20.032Z,6084.00
2019-04-28T06:11:17.560Z,6224.00
2019-04-28T06:12:17.730Z,6404.00
2019-04-28T06:13:17.900Z,6632.00
2019-04-28T06:14:19.787Z,6840.00
2019-04-28T06:15:18.236Z,7092.00
2019-04-28T06:16:19.598Z,7312.00
2019-04-28T06:17:20.421Z,7408.00
2019-04-28T06:18:20.496Z,7624.00
2019-04-28T06:19:20.202Z,7748.00
2019-04-28T06:20:20.118Z,7924.00
2019-04-28T06:21:19.288Z,8092.00
2019-04-28T06:22:19.460Z,8144.00
2019-04-28T06:23:19.630Z,8192.00
2019-04-28T06:24:19.801Z,8304.00
2019-04-28T06:25:19.971Z,8324.00
2019-04-28T06:26:20.140Z,8324.00
2019-04-28T06:27:20.313Z,8392.00
2019-04-28T06:28:20.484Z,8480.00
2019-04-28T06:29:20.654Z,8444.00
2019-04-28T06:30:20.824Z,8488.00
2019-04-28T06:31:20.997Z,8560.00
2019-04-28T06:32:22.241Z,8668.00
2019-04-28T06:33:21.323Z,8700.00
2019-04-28T06:34:21.496Z,8764.00
2019-04-28T06:35:21.667Z,8792.00
2019-04-28T06:36:21.839Z,8772.00
2019-04-28T06:37:22.007Z,8496.00
2019-04-28T06:38:22.178Z,8296.00
2019-04-28T06:39:22.348Z,8164.00
2019-04-28T06:40:22.520Z,7920.00
2019-04-28T06:41:22.699Z,7448.00
2019-04-28T06:42:22.869Z,7588.00
2019-04-28T06:43:23.041Z,7512.00
2019-04-28T06:44:23.213Z,7260.00
2019-04-28T06:45:23.385Z,7264.00
2019-04-28T06:46:23.574Z,7060.00
2019-04-28T06:47:23.728Z,6904.00
2019-04-28T06:48:23.893Z,6684.00
2019-04-28T06:49:24.067Z,6556.00
2019-04-28T06:50:24.240Z,6348.00
2019-04-28T06:51:24.405Z,6220.00
2019-04-28T06:52:24.578Z,6120.00
2019-04-28T06:53:24.748Z,6436.00
2019-04-28T06:54:24.918Z,6688.00
2019-04-28T06:55:25.090Z,6708.00
2019-04-28T06:56:25.257Z,6816.00
2019-04-28T06:57:25.459Z,7076.00
2019-04-28T06:58:25.610Z,8016.00
2019-04-28T06:59:25.782Z,8008.00
2019-04-28T07:00:25.952Z,8340.00
2019-04-28T07:01:26.125Z,8160.00
2019-04-28T07:02:26.300Z,7820.00
2019-04-28T07:03:26.472Z,8076.00
2019-04-28T07:04:26.640Z,8300.00
2019-04-28T07:05:26.810Z,8780.00
2019-04-28T07:06:26.978Z,8804.00
2019-04-28T07:07:27.149Z,8752.00
2019-04-28T07:08:27.318Z,8904.00
2019-04-28T07:09:27.562Z,8976.00
2019-04-28T07:10:27.660Z,8928.00
2019-04-28T07:11:27.844Z,9132.00
2019-04-28T07:12:28.008Z,8704.00
2019-04-28T07:13:28.178Z,8276.00
2019-04-28T07:14:28.346Z,8616.00
2019-04-28T07:15:28.515Z,9484.00
2019-04-28T07:16:28.686Z,9864.00
2019-04-28T07:17:28.855Z,9296.00
2019-04-28T07:18:29.024Z,8428.00
2019-04-28T07:19:29.198Z,8064.00
2019-04-28T07:20:29.417Z,7532.00
2019-04-28T07:21:29.564Z,7360.00
2019-04-28T07:22:29.732Z,7656.00
2019-04-28T07:23:29.908Z,7672.00
2019-04-28T07:24:30.078Z,7596.00
2019-04-28T07:25:30.247Z,7720.00
2019-04-28T07:26:30.419Z,7996.00
2019-04-28T07:27:30.588Z,8080.00
2019-04-28T07:28:30.762Z,7968.00
2019-04-28T07:29:30.928Z,7864.00
2019-04-28T07:30:31.100Z,8188.00
2019-04-28T07:31:31.271Z,8852.00
2019-04-28T07:32:31.439Z,9748.00
2019-04-28T07:33:36.158Z,10768.00
2019-04-28T07:34:31.786Z,11508.00
2019-04-28T07:35:31.960Z,12024.00
2019-04-28T07:36:32.131Z,12296.00
2019-04-28T07:37:32.300Z,12184.00
2019-04-28T07:38:32.468Z,10936.00
2019-04-28T07:39:32.631Z,10220.00
2019-04-28T07:40:32.806Z,9960.00
2019-04-28T07:41:32.970Z,9572.00
2019-04-28T07:42:33.191Z,9316.00
2019-04-28T07:43:33.304Z,9744.00
2019-04-28T07:44:33.472Z,10844.00
2019-04-28T07:45:33.641Z,11792.00
2019-04-28T07:46:33.813Z,12200.00
2019-04-28T07:47:33.982Z,12404.00
2019-04-28T07:48:34.154Z,12424.00
2019-04-28T07:49:34.324Z,12344.00
2019-04-28T07:50:34.501Z,11900.00
2019-04-28T07:51:34.672Z,10940.00
2019-04-28T07:52:34.843Z,10632.00
2019-04-28T07:53:35.020Z,10920.00
2019-04-28T07:54:35.195Z,11232.00
2019-04-28T07:55:35.379Z,11452.00
2019-04-28T07:56:35.539Z,11792.00
2019-04-28T07:57:35.709Z,12012.00
2019-04-28T07:58:35.880Z,11804.00
2019-04-28T07:59:36.051Z,11352.00
2019-04-28T08:00:36.224Z,10728.00
2019-04-28T08:01:36.395Z,10152.00
2019-04-28T08:02:36.569Z,9400.00
2019-04-28T08:03:48.775Z,9156.00
2019-04-28T08:04:36.917Z,9320.00
2019-04-28T08:05:37.087Z,9504.00
2019-04-28T08:06:37.258Z,9908.00
2019-04-28T08:07:37.431Z,10276.00
2019-04-28T08:08:37.597Z,10636.00
2019-04-28T08:09:37.773Z,11092.00
2019-04-28T08:10:37.937Z,11608.00
2019-04-28T08:11:38.128Z,11916.00
2019-04-28T08:12:38.291Z,11904.00
2019-04-28T08:13:38.462Z,11852.00
2019-04-28T08:14:38.669Z,11724.00
2019-04-28T08:15:38.816Z,11456.00
2019-04-28T08:16:38.985Z,11024.00
2019-04-28T08:17:39.158Z,10656.00
2019-04-28T08:18:39.328Z,10604.00
2019-04-28T08:19:39.529Z,10600.00
2019-04-28T08:20:39.670Z,10808.00
2019-04-28T08:21:39.845Z,11080.00
2019-04-28T08:22:40.017Z,11064.00
2019-04-28T08:23:46.900Z,11308.00
2019-04-28T08:24:40.352Z,12068.00
2019-04-28T08:25:40.525Z,13064.00
2019-04-28T08:26:40.698Z,13720.00
2019-04-28T08:27:40.869Z,13928.00
2019-04-28T08:28:41.040Z,14284.00
2019-04-28T08:29:41.209Z,18496.00
2019-04-28T08:30:41.382Z,18208.00
2019-04-28T08:31:41.554Z,18368.00
2019-04-28T08:32:41.728Z,16000.00
2019-04-28T08:33:41.899Z,13612.00
2019-04-28T08:34:42.070Z,12268.00
2019-04-28T08:35:42.242Z,11180.00
2019-04-28T08:36:42.413Z,10820.00
2019-04-28T08:37:42.578Z,10320.00
2019-04-28T08:38:42.748Z,10272.00
2019-04-28T08:39:42.922Z,9300.00
2019-04-28T08:40:43.095Z,9352.00
2019-04-28T08:41:43.266Z,9784.00
2019-04-28T08:42:43.438Z,10528.00
2019-04-28T08:43:43.611Z,11400.00
2019-04-28T08:44:43.794Z,11936.00
2019-04-28T08:45:43.952Z,12412.00
2019-04-28T08:46:44.128Z,12812.00
2019-04-28T08:47:44.296Z,13760.00
2019-04-28T08:48:44.469Z,14332.00
2019-04-28T08:49:44.641Z,14648.00
2019-04-28T08:50:44.829Z,16832.00
2019-04-28T08:51:44.999Z,16096.00
2019-04-28T08:52:45.171Z,15872.00
2019-04-28T08:53:45.344Z,15008.00
2019-04-28T08:54:45.512Z,15200.00
2019-04-28T08:55:45.687Z,13580.00
2019-04-28T08:56:45.856Z,14172.00
2019-04-28T08:57:46.037Z,14424.00
2019-04-28T08:58:46.208Z,14720.00
2019-04-28T08:59:46.384Z,13252.00
2019-04-28T09:00:46.559Z,15104.00
2019-04-28T09:01:46.732Z,15520.00
2019-04-28T09:02:46.902Z,15520.00
2019-04-28T09:03:47.073Z,16096.00
2019-04-28T09:04:47.247Z,16512.00
2019-04-28T09:05:47.423Z,17152.00
2019-04-28T09:06:47.593Z,16224.00
2019-04-28T09:07:47.764Z,18144.00
2019-04-28T09:08:47.936Z,18080.00
2019-04-28T09:09:48.109Z,18208.00
2019-04-28T09:10:48.280Z,18528.00
2019-04-28T09:11:48.471Z,18720.00
2019-04-28T09:12:48.628Z,18592.00
2019-04-28T09:13:48.801Z,18176.00
2019-04-28T09:14:48.976Z,17600.00
2019-04-28T09:15:49.144Z,14164.00
2019-04-28T09:16:49.324Z,14176.00
2019-04-28T09:17:49.491Z,14188.00
2019-04-28T09:18:49.653Z,14376.00
2019-04-28T09:19:49.868Z,14256.00
2019-04-28T09:20:50.013Z,15336.00
2019-04-28T09:21:50.187Z,15840.00
2019-04-28T09:22:50.359Z,17920.00
2019-04-28T09:23:50.530Z,27424.00
2019-04-28T09:24:50.701Z,27712.00
2019-04-28T09:25:50.873Z,27168.00
2019-04-28T09:26:51.053Z,39136.00
2019-04-28T09:27:51.222Z,39488.00
2019-04-28T09:28:51.397Z,39328.00
2019-04-28T09:29:51.574Z,40512.00
2019-04-28T09:30:51.750Z,39008.00
2019-04-28T09:31:51.918Z,38048.00
2019-04-28T09:32:52.088Z,41504.00
2019-04-28T09:33:52.264Z,42048.00
2019-04-28T09:34:52.438Z,40960.00
2019-04-28T09:35:52.614Z,41600.00
2019-04-28T09:36:52.798Z,40832.00
2019-04-28T09:37:52.966Z,42528.00
2019-04-28T09:38:53.142Z,43872.00
2019-04-28T09:39:53.316Z,42400.00
2019-04-28T09:40:53.486Z,42656.00
2019-04-28T09:41:53.664Z,43904.00
2019-04-28T09:42:53.839Z,43936.00
2019-04-28T09:43:54.016Z,45280.00
2019-04-28T09:44:54.187Z,44992.00
2019-04-28T09:45:54.363Z,46272.00
2019-04-28T09:46:54.541Z,44832.00
2019-04-28T09:47:54.719Z,36096.00
2019-04-28T09:48:54.892Z,18752.00
2019-04-28T09:49:55.069Z,17952.00
2019-04-28T09:50:55.243Z,20832.00
2019-04-28T09:51:55.420Z,19008.00
2019-04-28T09:52:55.596Z,16768.00
2019-04-28T09:53:55.780Z,16736.00
2019-04-28T09:54:55.946Z,17056.00
2019-04-28T09:55:56.123Z,17376.00
2019-04-28T09:56:57.211Z,17536.00
2019-04-28T09:57:56.477Z,17632.00
2019-04-28T09:58:56.667Z,17984.00
2019-04-28T09:59:56.841Z,18112.00
2019-04-28T10:00:57.017Z,18144.00
2019-04-28T10:01:57.188Z,18336.00
2019-04-28T10:02:57.364Z,18432.00
2019-04-28T10:03:57.538Z,18272.00
2019-04-28T10:04:57.715Z,18336.00
2019-04-28T10:05:57.886Z,17184.00
2019-04-28T10:06:58.062Z,13948.00
2019-04-28T10:07:58.240Z,12512.00
2019-04-28T10:08:58.410Z,11880.00
2019-04-28T10:09:58.588Z,11428.00
2019-04-28T10:10:58.764Z,11132.00
2019-04-28T10:11:58.939Z,11104.00
2019-04-28T10:12:59.111Z,11320.00
2019-04-28T10:13:59.288Z,11504.00
2019-04-28T10:14:59.473Z,11904.00
2019-04-28T10:15:59.642Z,12524.00
2019-04-28T10:16:59.818Z,13108.00
2019-04-28T10:17:59.992Z,13560.00
2019-04-28T10:19:00.175Z,13724.00
2019-04-28T10:20:00.348Z,13428.00
2019-04-28T10:21:00.524Z,12908.00
2019-04-28T10:22:00.702Z,12552.00
2019-04-28T10:23:00.875Z,12264.00
2019-04-28T10:24:01.049Z,12044.00
2019-04-28T10:25:01.224Z,11816.00
2019-04-28T10:26:01.396Z,11676.00
2019-04-28T10:27:01.575Z,11560.00
2019-04-28T10:28:01.743Z,11428.00
2019-04-28T10:29:01.916Z,11404.00
2019-04-28T10:30:02.101Z,11464.00
2019-04-28T10:31:02.271Z,11616.00
2019-04-28T10:32:02.445Z,11652.00
2019-04-28T10:33:02.624Z,11280.00
2019-04-28T10:34:02.805Z,10812.00
2019-04-28T10:35:02.978Z,10644.00
2019-04-28T10:36:03.150Z,10788.00
2019-04-28T10:37:03.321Z,11396.00
2019-04-28T10:38:03.497Z,11944.00
2019-04-28T10:39:03.671Z,12220.00
2019-04-28T10:40:03.844Z,12404.00
2019-04-28T10:41:04.021Z,12572.00
2019-04-28T10:42:04.193Z,12776.00
2019-04-28T10:43:04.365Z,13200.00
2019-04-28T10:44:04.538Z,13812.00
2019-04-28T10:45:04.710Z,14424.00
2019-04-28T10:46:04.886Z,15160.00
2019-04-28T10:47:05.060Z,15680.00
2019-04-28T10:48:05.228Z,15744.00
2019-04-28T10:49:05.433Z,15808.00
2019-04-28T10:50:05.589Z,15872.00
2019-04-28T10:51:05.766Z,15776.00
2019-04-28T10:52:05.935Z,15144.00
2019-04-28T10:53:06.109Z,13384.00
2019-04-28T10:54:06.294Z,11632.00
2019-04-28T10:55:06.457Z,10892.00
2019-04-28T10:56:06.690Z,10324.00
2019-04-28T10:57:06.809Z,9956.00
2019-04-28T10:58:06.985Z,9728.00
2019-04-28T10:59:07.153Z,9508.00
2019-04-28T11:00:07.325Z,9392.00
2019-04-28T11:01:07.501Z,9408.00
2019-04-28T11:02:07.672Z,9768.00
2019-04-28T11:03:07.846Z,10020.00
2019-04-28T11:04:08.018Z,10044.00
2019-04-28T11:05:09.102Z,10000.00
2019-04-28T11:06:08.362Z,9976.00
2019-04-28T11:07:08.538Z,9888.00
2019-04-28T11:08:08.709Z,9736.00
2019-04-28T11:09:08.884Z,9572.00
2019-04-28T11:10:09.056Z,9468.00
2019-04-28T11:11:09.230Z,9348.00
2019-04-28T11:12:09.402Z,9092.00
2019-04-28T11:13:09.576Z,8680.00
2019-04-28T11:14:09.753Z,8288.00
2019-04-28T11:15:09.928Z,8104.00
2019-04-28T11:16:10.097Z,8156.00
2019-04-28T11:17:10.270Z,9012.00
2019-04-28T11:18:10.442Z,9008.00
2019-04-28T11:19:10.616Z,9448.00
2019-04-28T11:20:10.790Z,9328.00
2019-04-28T11:21:10.969Z,9584.00
2019-04-28T11:22:11.138Z,8992.00
2019-04-28T11:23:11.319Z,8684.00
2019-04-28T11:24:11.486Z,8300.00
2019-04-28T11:25:11.658Z,7852.00
2019-04-28T11:26:11.829Z,7324.00
2019-04-28T11:27:12.007Z,6912.00
2019-04-28T11:28:12.177Z,6784.00
2019-04-28T11:29:12.353Z,6828.00
2019-04-28T11:30:12.524Z,6924.00
2019-04-28T11:31:12.698Z,7020.00
2019-04-28T11:32:12.873Z,7132.00
2019-04-28T11:33:13.056Z,7304.00
2019-04-28T11:34:13.215Z,7160.00
2019-04-28T11:35:21.225Z,7012.00
2019-04-28T11:36:13.561Z,6956.00
2019-04-28T11:37:13.723Z,6932.00
2019-04-28T11:38:13.897Z,6880.00
2019-04-28T11:39:14.064Z,6812.00
2019-04-28T11:40:14.256Z,6664.00
2019-04-28T11:41:14.436Z,6464.00
2019-04-28T11:42:14.603Z,6264.00
2019-04-28T11:43:14.774Z,6116.00
2019-04-28T11:44:14.965Z,6008.00
2019-04-28T11:45:15.120Z,5960.00
2019-04-28T11:46:15.290Z,5940.00
2019-04-28T11:47:15.457Z,5896.00
2019-04-28T11:48:15.623Z,5812.00
2019-04-28T11:50:47.878Z,5348.00
2019-04-28T11:51:48.026Z,5020.00
2019-04-28T11:52:48.200Z,4660.00
2019-04-28T11:53:48.374Z,4344.00
2019-04-28T11:54:48.549Z,4100.00
2019-04-28T11:55:48.718Z,3972.00
2019-04-28T11:56:48.890Z,4036.00
2019-04-28T11:57:49.062Z,4152.00
2019-04-28T11:58:49.235Z,4384.00
2019-04-28T11:59:49.409Z,4804.00
2019-04-28T12:00:49.580Z,5328.00
2019-04-28T12:01:49.748Z,5664.00
2019-04-28T12:02:49.923Z,5664.00
2019-04-28T12:03:50.095Z,5308.00
2019-04-28T12:04:50.267Z,4992.00
2019-04-28T12:05:50.439Z,4696.00
2019-04-28T12:06:50.647Z,4444.00
2019-04-28T12:07:50.783Z,4268.00
2019-04-28T12:08:50.949Z,4208.00
2019-04-28T12:10:03.366Z,4308.00
2019-04-28T12:10:51.289Z,4492.00
2019-04-28T12:11:51.459Z,4576.00
2019-04-28T12:12:51.631Z,4596.00
2019-04-28T12:13:51.812Z,4436.00
2019-04-28T12:14:51.976Z,4148.00
2019-04-28T12:15:52.149Z,3876.00
2019-04-28T12:16:52.322Z,3688.00
2019-04-28T12:17:52.494Z,3588.00
2019-04-28T12:18:52.676Z,3476.00
2019-04-28T12:19:52.845Z,3396.00
2019-04-28T12:20:53.017Z,3344.00
2019-04-28T12:21:53.187Z,3340.00
2019-04-28T12:22:53.367Z,3448.00
2019-04-28T12:23:53.545Z,3580.00
2019-04-28T12:24:53.708Z,3784.00
2019-04-28T12:25:53.879Z,4048.00
2019-04-28T12:26:54.048Z,4360.00
2019-04-28T12:27:54.223Z,4668.00
2019-04-28T12:28:54.397Z,4956.00
2019-04-28T12:29:54.597Z,5220.00
2019-04-28T12:30:54.770Z,5332.00
2019-04-28T12:31:54.941Z,5280.00
2019-04-28T12:32:55.112Z,5064.00
2019-04-28T12:33:55.291Z,4832.00
2019-04-28T12:34:55.463Z,4508.00
2019-04-28T12:35:55.638Z,4316.00
2019-04-28T12:36:55.809Z,4408.00
2019-04-28T12:37:55.980Z,4780.00
2019-04-28T12:38:56.154Z,5332.00
2019-04-28T12:39:56.326Z,6076.00
2019-04-28T12:40:56.498Z,6968.00
2019-04-28T12:41:56.669Z,7604.00
2019-04-28T12:42:56.843Z,8112.00
2019-04-28T12:43:57.034Z,8844.00
2019-04-28T12:44:57.185Z,9260.00
2019-04-28T12:45:57.360Z,9384.00
2019-04-28T12:46:57.533Z,9020.00
2019-04-28T12:47:57.706Z,8032.00
2019-04-28T12:48:57.877Z,7240.00
2019-04-28T12:49:58.047Z,6700.00
2019-04-28T12:50:58.219Z,6428.00
2019-04-28T12:51:58.387Z,6520.00
2019-04-28T12:52:58.558Z,6844.00
2019-04-28T12:53:58.729Z,7220.00
2019-04-28T12:54:58.902Z,7640.00
2019-04-28T12:55:59.075Z,8392.00
2019-04-28T12:56:59.245Z,9588.00
2019-04-28T12:57:59.417Z,11576.00
2019-04-28T12:58:59.591Z,17120.00
2019-04-28T12:59:59.765Z,12604.00
2019-04-28T13:00:59.931Z,13292.00
2019-04-28T13:02:00.105Z,13656.00
2019-04-28T13:03:00.284Z,14500.00
2019-04-28T13:04:00.458Z,14536.00
2019-04-28T13:05:00.629Z,15036.00
2019-04-28T13:06:05.362Z,16512.00
2019-04-28T13:07:00.972Z,18752.00
2019-04-28T13:08:01.146Z,19776.00
2019-04-28T13:09:01.316Z,20768.00
2019-04-28T13:10:01.490Z,21632.00
2019-04-28T13:11:01.661Z,21248.00
2019-04-28T13:12:01.833Z,20480.00
2019-04-28T13:13:02.003Z,19392.00
2019-04-28T13:14:02.176Z,19072.00
2019-04-28T13:15:02.349Z,21728.00
2019-04-28T13:16:02.520Z,29856.00
2019-04-28T13:17:02.694Z,27616.00
2019-04-28T13:18:02.861Z,35168.00
2019-04-28T13:19:03.034Z,80320.00
2019-04-28T13:20:03.211Z,34496.00
2019-04-28T13:21:03.382Z,90240.00
2019-04-28T13:22:05.520Z,50112.00
2019-04-28T13:23:03.725Z,27360.00
2019-04-28T13:24:03.899Z,19104.00
2019-04-28T13:25:04.071Z,84192.00
2019-04-28T13:26:04.276Z,19648.00
2019-04-28T13:27:04.415Z,21408.00
2019-04-28T13:28:04.589Z,80384.00
2019-04-28T13:29:04.761Z,79744.00
2019-04-28T13:30:04.934Z,85696.00
2019-04-28T13:31:05.109Z,87872.00
2019-04-28T13:32:05.284Z,94272.00
2019-04-28T13:33:05.460Z,98176.00
2019-04-28T13:34:05.633Z,36672.00
2019-04-28T13:35:05.805Z,88608.00
2019-04-28T13:36:14.713Z,85760.00
2019-04-28T13:37:06.190Z,86368.00
2019-04-28T13:38:06.387Z,85376.00
2019-04-28T13:39:06.519Z,20608.00
2019-04-28T13:40:06.671Z,43168.00
2019-04-28T13:41:06.848Z,79840.00
2019-04-28T13:42:07.025Z,82880.00
2019-04-28T13:43:07.202Z,86400.00
2019-04-28T13:44:07.376Z,82976.00
2019-04-28T13:45:07.554Z,76480.00
2019-04-28T13:46:07.729Z,75712.00
2019-04-28T13:47:07.907Z,78848.00
2019-04-28T13:48:08.096Z,84128.00
2019-04-28T13:49:08.264Z,88576.00
2019-04-28T13:50:08.445Z,84736.00
2019-04-28T13:51:08.620Z,73664.00
2019-04-28T13:52:08.800Z,17856.00
2019-04-28T13:53:08.978Z,24544.00
2019-04-28T13:54:09.165Z,32032.00
2019-04-28T13:55:09.340Z,94176.00
2019-04-28T13:56:09.508Z,86752.00
2019-04-28T13:57:09.694Z,85952.00
2019-04-28T13:58:09.862Z,87680.00
2019-04-28T13:59:10.044Z,84064.00
2019-04-28T14:00:10.219Z,74208.00
2019-04-28T14:01:10.393Z,22272.00
2019-04-28T14:02:10.570Z,53984.00
2019-04-28T14:03:10.774Z,70272.00
2019-04-28T14:04:10.920Z,76704.00
2019-04-28T14:05:11.098Z,86944.00
2019-04-28T14:06:11.278Z,88288.00
2019-04-28T14:07:11.453Z,80864.00
2019-04-28T14:08:11.637Z,72160.00
2019-04-28T14:09:11.811Z,72448.00
2019-04-28T14:10:12.004Z,73664.00
2019-04-28T14:11:12.246Z,19104.00
2019-04-28T14:12:12.410Z,81792.00
2019-04-28T14:13:12.549Z,70688.00
2019-04-28T14:14:12.727Z,12296.00
2019-04-28T14:15:12.900Z,79552.00
2019-04-28T14:16:13.098Z,36224.00
2019-04-28T14:17:13.258Z,79584.00
2019-04-28T14:18:13.441Z,81120.00
2019-04-28T14:19:13.627Z,78912.00
2019-04-28T14:20:13.806Z,76544.00
2019-04-28T14:21:13.979Z,77600.00
2019-04-28T14:22:14.157Z,79584.00
2019-04-28T14:23:14.339Z,77440.00
2019-04-28T14:24:14.519Z,75104.00
2019-04-28T14:25:14.696Z,76864.00
2019-04-28T14:26:14.876Z,76256.00
2019-04-28T14:27:15.056Z,73248.00
2019-04-28T14:28:15.277Z,73728.00
2019-04-28T14:29:15.407Z,79552.00
2019-04-28T14:30:15.577Z,82976.00
2019-04-28T14:31:15.822Z,79200.00
2019-04-28T14:32:15.932Z,73760.00
2019-04-28T14:33:16.670Z,75168.00
2019-04-28T14:34:16.291Z,80128.00
2019-04-28T14:35:16.475Z,77472.00
2019-04-28T14:36:16.649Z,71584.00
2019-04-28T14:37:16.845Z,71584.00
2019-04-28T14:38:17.024Z,75904.00
2019-04-28T14:39:17.192Z,76864.00
2019-04-28T14:40:17.367Z,73984.00
2019-04-28T14:41:17.550Z,72864.00
2019-04-28T14:42:17.775Z,73760.00
2019-04-28T14:43:17.907Z,75584.00
2019-04-28T14:44:18.114Z,74272.00
2019-04-28T14:45:18.264Z,72224.00
2019-04-28T14:46:18.447Z,74272.00
2019-04-28T14:47:18.657Z,77184.00
2019-04-28T14:48:18.804Z,73408.00
2019-04-28T14:49:18.981Z,68864.00
2019-04-28T14:50:19.162Z,68192.00
2019-04-28T14:51:19.355Z,71744.00
2019-04-28T14:52:19.530Z,75072.00
2019-04-28T14:53:19.713Z,72640.00
2019-04-28T14:54:19.893Z,68800.00
2019-04-28T14:55:20.079Z,71424.00
2019-04-28T14:56:20.321Z,75712.00
2019-04-28T14:57:20.432Z,71104.00
2019-04-28T14:58:20.678Z,63840.00
2019-04-28T14:59:20.794Z,64416.00
2019-04-28T15:00:20.970Z,70848.00
2019-04-28T15:01:21.257Z,72640.00
2019-04-28T15:02:21.349Z,69536.00
2019-04-28T15:03:21.523Z,70048.00
2019-04-28T15:04:21.703Z,72096.00
2019-04-28T15:05:21.880Z,69696.00
2019-04-28T15:06:22.099Z,63808.00
2019-04-28T15:07:22.249Z,55552.00
2019-04-28T15:08:22.426Z,51552.00
2019-04-28T15:09:22.614Z,53664.00
2019-04-28T15:10:22.786Z,52416.00
2019-04-28T15:11:23.071Z,47360.00
2019-04-28T15:12:23.158Z,42080.00
2019-04-28T15:13:23.326Z,39776.00
2019-04-28T15:14:23.568Z,38752.00
2019-04-28T15:15:23.692Z,33952.00
2019-04-28T15:16:23.919Z,33024.00
2019-04-28T15:17:24.119Z,35136.00
2019-04-28T15:18:24.239Z,33984.00
2019-04-28T15:19:24.426Z,31808.00
2019-04-28T15:20:24.596Z,31840.00
2019-04-28T15:21:24.824Z,33728.00
2019-04-28T15:22:24.974Z,33952.00
2019-04-28T15:23:25.187Z,33536.00
2019-04-28T15:24:25.312Z,37824.00
2019-04-28T15:25:25.518Z,42400.00
2019-04-28T15:26:25.674Z,42720.00
2019-04-28T15:27:25.913Z,40608.00
2019-04-28T15:28:26.024Z,40128.00
2019-04-28T15:29:26.203Z,43936.00
2019-04-28T15:30:26.379Z,47744.00
2019-04-28T15:31:26.552Z,48960.00
2019-04-28T15:32:27.522Z,47680.00
2019-04-28T15:33:26.934Z,46464.00
2019-04-28T15:34:27.098Z,52256.00
2019-04-28T15:35:27.277Z,56224.00
2019-04-28T15:36:27.462Z,52640.00
2019-04-28T15:37:27.637Z,50304.00
2019-04-28T15:38:27.821Z,53440.00
2019-04-28T15:39:27.985Z,55072.00
2019-04-28T15:40:28.152Z,51744.00
2019-04-28T15:41:28.335Z,49120.00
2019-04-28T15:42:28.510Z,49600.00
2019-04-28T15:43:28.748Z,50496.00
2019-04-28T15:44:28.847Z,51264.00
2019-04-28T15:45:29.021Z,53664.00
2019-04-28T15:46:29.210Z,52896.00
2019-04-28T15:47:29.384Z,44832.00
2019-04-28T15:48:29.562Z,36640.00
2019-04-28T15:49:29.734Z,24032.00
2019-04-28T15:50:29.912Z,18752.00
2019-04-28T15:51:30.098Z,25184.00
2019-04-28T15:52:30.271Z,25376.00
2019-04-28T15:53:30.453Z,16128.00
2019-04-28T15:54:30.637Z,22208.00
2019-04-28T15:55:30.813Z,31264.00
2019-04-28T15:56:30.991Z,34304.00
2019-04-28T15:57:31.173Z,21088.00
2019-04-28T15:58:31.352Z,16288.00
2019-04-28T15:59:31.605Z,15060.00